Time;durP1;ratioP1;P1;durP2;ratioP2;P2;SDS_P1;SDS_P2;PMS_P1;PMS_P2;Temp;Humidity;BMP_temperature;BMP_pressure;BME280_temperature;BME280_humidity;BME280_pressure;Samples;Min_cycle;Max_cycle;Signal;HPM_P1;HPM_P2
2023/06/19 00:01:52;;;;;;;8.10;5.35;;;;;;;20.70;100.00;100881.16;10373520;28;20049;-75
2023/06/19 00:06:53;;;;;;;6.80;5.32;;;;;;;20.56;100.00;100870.06;10404819;28;20044;-76
2023/06/19 00:11:54;;;;;;;7.78;5.07;;;;;;;20.68;100.00;100872.28;10375029;28;20053;-77
2023/06/19 00:16:54;;;;;;;8.27;5.13;;;;;;;20.68;100.00;100855.50;10367448;28;20536;-77
2023/06/19 00:21:57;;;;;;;6.85;5.00;;;;;;;20.68;100.00;100849.91;10356980;28;20405;-75
2023/06/19 00:27:02;;;;;;;8.43;5.43;;;;;;;20.62;100.00;100839.19;10356547;28;20041;-77
2023/06/19 00:32:02;;;;;;;6.93;5.80;;;;;;;20.60;100.00;100825.53;10359891;28;20041;-77
2023/06/19 00:37:03;;;;;;;6.18;5.03;;;;;;;20.54;100.00;100822.00;10376186;28;20437;-75
2023/06/19 00:42:04;;;;;;;7.03;4.95;;;;;;;20.54;100.00;100815.59;10370310;28;20030;-76
2023/06/19 00:47:05;;;;;;;7.47;5.50;;;;;;;20.54;100.00;100810.00;10364550;28;20034;-75
2023/06/19 00:52:06;;;;;;;7.57;5.05;;;;;;;20.51;100.00;100805.06;10341981;28;20038;-76
2023/06/19 00:57:07;;;;;;;7.15;5.10;;;;;;;20.64;100.00;100823.72;10341186;28;20058;-76
2023/06/19 01:02:08;;;;;;;7.07;4.93;;;;;;;20.63;100.00;100802.50;10335119;28;20118;-76
2023/06/19 01:07:09;;;;;;;8.52;5.53;;;;;;;20.47;100.00;100785.31;10332987;28;20069;-75
2023/06/19 01:12:18;;;;;;;6.15;4.97;;;;;;;20.50;100.00;100773.44;10330836;28;20038;-76
2023/06/19 01:17:20;;;;;;;5.93;4.80;;;;;;;20.52;100.00;100775.94;10290114;28;20380;-78
2023/06/19 01:22:29;;;;;;;6.30;5.15;;;;;;;20.45;100.00;100778.41;10344756;28;20038;-77
2023/06/19 01:27:31;;;;;;;6.65;5.28;;;;;;;20.39;100.00;100762.91;10352762;28;20089;-75
2023/06/19 01:32:45;;;;;;;7.55;5.15;;;;;;;20.41;100.00;100755.84;10348040;28;20125;-76
2023/06/19 01:37:46;;;;;;;8.07;5.63;;;;;;;20.47;100.00;100771.31;10342432;28;20042;-76
2023/06/19 01:42:46;;;;;;;8.13;5.80;;;;;;;20.43;100.00;100766.72;10340157;28;20026;-75
2023/06/19 01:47:46;;;;;;;6.68;5.63;;;;;;;20.28;100.00;100754.81;10357637;28;20042;-74
2023/06/19 01:52:47;;;;;;;9.63;5.35;;;;;;;20.12;100.00;100736.81;10349675;28;20062;-76
2023/06/19 01:57:48;;;;;;;7.45;5.15;;;;;;;20.30;100.00;100766.50;10341223;28;20042;-78
2023/06/19 02:02:48;;;;;;;7.68;5.40;;;;;;;20.25;100.00;100752.66;10341136;28;20046;-77
2023/06/19 02:07:49;;;;;;;6.22;4.93;;;;;;;20.27;100.00;100755.13;10365320;28;20038;-75
2023/06/19 02:12:49;;;;;;;7.55;5.55;;;;;;;20.22;100.00;100761.69;10339408;28;20034;-76
2023/06/19 02:17:54;;;;;;;6.90;5.00;;;;;;;20.18;100.00;100749.50;10331029;28;20034;-76
2023/06/19 02:22:55;;;;;;;7.25;5.35;;;;;;;19.88;100.00;100698.06;10364405;28;20070;-76
2023/06/19 02:27:55;;;;;;;9.98;5.55;;;;;;;20.14;100.00;100735.34;10341899;28;20042;-75
2023/06/19 02:32:56;;;;;;;8.40;4.93;;;;;;;20.17;100.00;100739.47;10383242;28;20490;-76
2023/06/19 02:37:57;;;;;;;5.90;5.03;;;;;;;20.16;100.00;100743.41;10379631;28;20038;-78
2023/06/19 02:42:58;;;;;;;6.65;5.53;;;;;;;20.02;100.00;100714.75;10365137;28;20038;-78
2023/06/19 02:47:58;;;;;;;7.40;5.57;;;;;;;20.05;100.00;100725.25;10342011;28;20038;-78
2023/06/19 02:52:59;;;;;;;7.13;5.93;;;;;;;19.99;100.00;100727.41;10397350;28;20053;-79
2023/06/19 02:57:59;;;;;;;9.38;5.22;;;;;;;20.03;100.00;100734.00;10381547;28;20042;-79
2023/06/19 03:03:00;;;;;;;6.55;4.65;;;;;;;20.00;100.00;100736.59;10364624;28;20061;-77
2023/06/19 03:08:01;;;;;;;6.53;4.85;;;;;;;19.85;100.00;100719.09;10395773;28;20418;-78
2023/06/19 03:13:02;;;;;;;10.40;5.78;;;;;;;19.92;100.00;100738.19;10331033;28;20038;-79
2023/06/19 03:18:06;;;;;;;7.63;5.28;;;;;;;19.87;100.00;100724.38;10322456;28;20039;-78
2023/06/19 03:23:07;;;;;;;7.50;5.25;;;;;;;19.96;100.00;100737.22;10356807;28;20041;-77
2023/06/19 03:28:07;;;;;;;8.45;4.82;;;;;;;20.00;100.00;100740.22;10404133;28;20041;-78
2023/06/19 03:33:07;;;;;;;6.88;4.55;;;;;;;19.96;100.00;100734.44;10403700;28;20035;-78
2023/06/19 03:38:08;;;;;;;6.68;5.38;;;;;;;20.05;100.00;100753.22;10421291;28;20025;-78
2023/06/19 03:43:08;;;;;;;6.70;5.15;;;;;;;20.10;100.00;100755.88;10386620;28;20038;-79
2023/06/19 03:48:09;;;;;;;9.05;5.30;;;;;;;20.07;100.00;100757.34;10380237;28;20046;-79
2023/06/19 03:53:10;;;;;;;7.72;5.45;;;;;;;20.18;100.00;100779.44;10348407;28;20046;-79
2023/06/19 03:58:10;;;;;;;8.73;6.00;;;;;;;20.30;100.00;100774.88;10371569;28;20349;-78
2023/06/19 04:03:11;;;;;;;7.07;5.43;;;;;;;20.36;100.00;100781.13;10353771;28;20042;-78
2023/06/19 04:08:11;;;;;;;8.95;5.68;;;;;;;20.34;100.00;100775.88;10337481;28;20049;-79
2023/06/19 04:13:12;;;;;;;8.23;5.30;;;;;;;20.34;100.00;100787.06;10337425;28;20034;-78
2023/06/19 04:18:13;;;;;;;9.02;5.30;;;;;;;20.36;100.00;100784.78;10354405;28;20038;-78
2023/06/19 04:23:13;;;;;;;8.80;5.65;;;;;;;20.44;100.00;100785.94;10336869;28;20066;-78
2023/06/19 04:28:14;;;;;;;8.18;5.20;;;;;;;20.49;100.00;100779.41;10336593;28;20042;-76
2023/06/19 04:33:14;;;;;;;7.28;4.85;;;;;;;20.65;100.00;100777.84;10353790;28;20062;-78
2023/06/19 04:38:15;;;;;;;6.55;4.25;;;;;;;20.77;100.00;100768.78;10335630;28;20053;-76
2023/06/19 04:43:16;;;;;;;7.95;5.00;;;;;;;20.83;100.00;100777.84;10403964;28;20477;-77
2023/06/19 04:48:17;;;;;;;9.48;5.75;;;;;;;20.89;100.00;100793.34;10339808;28;20124;-77
2023/06/19 04:53:17;;;;;;;9.43;5.28;;;;;;;20.53;100.00;100739.25;10344489;28;20034;-77
2023/06/19 04:58:20;;;;;;;9.07;5.85;;;;;;;20.82;100.00;100796.63;10377542;28;20057;-76
2023/06/19 05:03:21;;;;;;;7.90;5.22;;;;;;;20.76;100.00;100804.34;10360063;28;20053;-79
2023/06/19 05:08:22;;;;;;;9.50;5.72;;;;;;;20.72;100.00;100800.53;10359714;28;20044;-79
2023/06/19 05:13:22;;;;;;;9.70;5.50;;;;;;;20.74;100.00;100803.84;10358824;28;20490;-79
2023/06/19 05:18:23;;;;;;;11.40;5.63;;;;;;;20.85;100.00;100792.34;10359570;28;20034;-79
2023/06/19 05:23:23;;;;;;;5.53;4.20;;;;;;;20.84;100.00;100790.72;10359219;28;20045;-79
2023/06/19 05:28:24;;;;;;;5.50;4.40;;;;;;;21.01;100.00;100817.91;10361008;28;20102;-79
2023/06/19 05:33:24;;;;;;;8.10;5.00;;;;;;;21.06;100.00;100826.94;10358924;28;20080;-79
2023/06/19 05:38:25;;;;;;;5.45;4.15;;;;;;;21.12;100.00;100845.25;10374589;28;20045;-76
2023/06/19 05:43:26;;;;;;;6.53;3.63;;;;;;;21.08;100.00;100841.44;10327019;28;20034;-79
2023/06/19 05:48:26;;;;;;;4.03;3.03;;;;;;;21.10;100.00;100844.75;10349920;28;20038;-77
2023/06/19 05:53:27;;;;;;;20.83;4.88;;;;;;;21.24;100.00;100855.00;10333577;28;20061;-78
2023/06/19 05:58:28;;;;;;;4.78;2.45;;;;;;;21.37;100.00;100862.41;10359182;28;20042;-77
2023/06/19 06:03:30;;;;;;;5.97;2.80;;;;;;;21.63;100.00;100879.28;10323180;28;20037;-77
2023/06/19 06:08:32;;;;;;;4.40;2.40;;;;;;;21.74;100.00;100882.56;10355187;28;20501;-77
2023/06/19 06:13:32;;;;;;;5.15;2.90;;;;;;;22.11;100.00;100889.44;10307656;28;20381;-77
2023/06/19 06:18:33;;;;;;;6.97;3.38;;;;;;;22.12;100.00;100898.72;10352920;28;20030;-78
2023/06/19 06:23:33;;;;;;;5.25;3.42;;;;;;;22.01;100.00;100911.41;10349663;28;20039;-76
2023/06/19 06:28:34;;;;;;;4.22;2.95;;;;;;;21.90;100.00;100911.75;10333543;28;20106;-77
2023/06/19 06:33:34;;;;;;;3.42;2.60;;;;;;;22.17;100.00;100912.53;10336623;28;20100;-77
2023/06/19 06:38:35;;;;;;;5.13;3.13;;;;;;;22.26;100.00;100896.56;10333075;28;20034;-78
2023/06/19 06:43:35;;;;;;;4.40;3.35;;;;;;;22.05;100.00;100901.19;10333794;28;20149;-78
2023/06/19 06:48:36;;;;;;;3.97;2.90;;;;;;;22.34;100.00;100906.91;10339809;28;20058;-78
2023/06/19 06:53:37;;;;;;;4.72;3.25;;;;;;;22.71;100.00;100904.50;10354554;28;20509;-77
2023/06/19 06:58:39;;;;;;;3.80;2.63;;;;;;;22.81;100.00;100894.09;10358711;28;20041;-78
2023/06/19 07:03:39;;;;;;;4.90;2.42;;;;;;;22.56;100.00;100905.06;10318271;28;20069;-78
2023/06/19 07:08:40;;;;;;;6.55;3.72;;;;;;;22.68;100.00;100916.41;10342177;28;20106;-78
2023/06/19 07:13:41;;;;;;;4.43;2.40;;;;;;;22.65;100.00;100914.25;10338426;28;20055;-78
2023/06/19 07:18:41;;;;;;;3.28;2.78;;;;;;;22.49;100.00;100916.81;10360360;28;20069;-79
2023/06/19 07:23:42;;;;;;;5.15;2.83;;;;;;;22.27;100.00;100923.44;10385087;28;20041;-78
2023/06/19 07:28:42;;;;;;;4.80;2.97;;;;;;;22.42;100.00;100941.72;10327376;28;20030;-77
2023/06/19 07:33:43;;;;;;;3.83;3.30;;;;;;;22.30;100.00;100955.59;10308976;28;20045;-77
2023/06/19 07:38:45;;;;;;;4.78;4.18;;;;;;;21.86;100.00;100955.59;10352712;28;20038;-78
2023/06/19 07:43:45;;;;;;;7.50;5.03;;;;;;;21.69;100.00;100964.81;10363174;28;20038;-77
2023/06/19 07:48:46;;;;;;;7.07;4.78;;;;;;;21.51;100.00;100977.94;10356229;28;20370;-77
2023/06/19 07:53:46;;;;;;;9.38;6.72;;;;;;;21.13;100.00;100991.66;10339268;28;20041;-78
2023/06/19 07:58:47;;;;;;;11.32;7.97;;;;;;;20.93;100.00;100993.03;10324943;28;20038;-77
2023/06/19 08:03:47;;;;;;;11.77;7.63;;;;;;;20.98;100.00;100992.91;10360183;28;20056;-79
2023/06/19 08:08:48;;;;;;;10.85;7.38;;;;;;;21.16;100.00;100989.00;10365498;28;20042;-77
2023/06/19 08:13:48;;;;;;;29.95;10.30;;;;;;;21.39;100.00;100991.72;10397702;28;20494;-77
2023/06/19 08:18:49;;;;;;;8.68;5.97;;;;;;;21.34;100.00;100994.69;10375104;28;20684;-77
2023/06/19 08:23:49;;;;;;;8.50;5.55;;;;;;;21.21;100.00;101004.88;10375075;28;20407;-77
2023/06/19 08:28:50;;;;;;;7.30;5.07;;;;;;;20.95;100.00;101013.13;10376370;28;20037;-79
2023/06/19 08:33:50;;;;;;;6.82;4.57;;;;;;;20.91;100.00;101012.13;10359064;28;20037;-77
2023/06/19 08:38:52;;;;;;;9.25;4.63;;;;;;;20.95;100.00;101021.53;10357020;28;20038;-77
2023/06/19 08:43:53;;;;;;;5.65;4.25;;;;;;;21.11;100.00;101031.16;10357101;28;20046;-77
2023/06/19 08:48:54;;;;;;;4.78;3.90;;;;;;;21.25;100.00;101036.66;10349371;28;20031;-82
2023/06/19 08:53:59;;;;;;;4.20;3.33;;;;;;;20.86;100.00;101006.69;10349760;28;20058;-76
2023/06/19 08:59:13;;;;;;;7.78;4.43;;;;;;;21.16;100.00;101052.59;10373457;28;20054;-77
2023/06/19 09:04:13;;;;;;;5.38;3.00;;;;;;;21.07;100.00;101049.75;10374151;28;20124;-77
2023/06/19 09:09:15;;;;;;;4.15;3.05;;;;;;;21.27;100.00;101072.72;10390757;28;20575;-77
2023/06/19 09:14:16;;;;;;;4.10;2.47;;;;;;;21.29;100.00;101067.63;10338463;28;20061;-81
2023/06/19 09:19:20;;;;;;;4.93;3.25;;;;;;;21.26;100.00;101079.50;10333360;28;20030;-76
2023/06/19 09:24:21;;;;;;;4.13;2.70;;;;;;;21.13;100.00;101076.47;10353808;28;20099;-76
2023/06/19 09:29:22;;;;;;;7.25;3.30;;;;;;;20.77;100.00;101062.56;10337838;28;20049;-75
2023/06/19 09:34:22;;;;;;;6.20;2.88;;;;;;;20.67;100.00;101094.44;10342251;28;20036;-77
2023/06/19 09:39:23;;;;;;;6.22;4.20;;;;;;;20.66;100.00;101106.75;10331520;28;20065;-74
2023/06/19 09:44:24;;;;;;;4.93;3.17;;;;;;;20.65;100.00;101112.66;10348594;28;20049;-77
2023/06/19 09:49:26;;;;;;;5.65;3.38;;;;;;;20.77;100.00;101112.91;10332978;28;20359;-75
2023/06/19 09:54:27;;;;;;;5.20;3.08;;;;;;;20.92;100.00;101100.53;10350004;28;20141;-77
2023/06/19 09:59:27;;;;;;;5.18;3.88;;;;;;;21.04;100.00;101113.94;10348667;28;20038;-76
2023/06/19 10:04:29;;;;;;;6.95;3.53;;;;;;;21.22;100.00;101068.09;10318330;28;20088;-74
2023/06/19 10:09:32;;;;;;;5.15;3.40;;;;;;;22.15;100.00;101125.97;10334411;28;20046;-76
2023/06/19 10:14:32;;;;;;;6.60;3.08;;;;;;;22.64;100.00;101125.91;10329375;28;20047;-75
2023/06/19 10:19:33;;;;;;;4.28;3.33;;;;;;;22.85;100.00;101114.00;10344814;28;20045;-75
2023/06/19 10:24:34;;;;;;;6.05;3.42;;;;;;;23.15;100.00;101112.16;10351822;28;20070;-76
2023/06/19 10:29:40;;;;;;;5.45;3.92;;;;;;;23.02;100.00;101102.75;10294519;28;20046;-75
2023/06/19 10:34:50;;;;;;;6.45;4.10;;;;;;;23.20;100.00;101103.56;10317657;28;20054;-76
2023/06/19 10:39:51;;;;;;;8.38;5.45;;;;;;;23.39;100.00;101111.59;10343631;28;20049;-75
2023/06/19 10:44:51;;;;;;;5.20;4.53;;;;;;;23.30;100.00;101102.38;10322469;28;20148;-75
2023/06/19 10:49:52;;;;;;;8.68;4.57;;;;;;;23.74;100.00;101101.03;10322361;28;20039;-74
2023/06/19 10:54:56;;;;;;;7.00;5.40;;;;;;;24.27;100.00;101098.75;10305775;28;20498;-76
2023/06/19 10:59:58;;;;;;;4.55;3.85;;;;;;;23.93;100.00;101095.00;10341741;28;20042;-77
2023/06/19 11:04:58;;;;;;;4.88;3.75;;;;;;;23.65;100.00;101083.38;10331658;28;20041;-75
2023/06/19 11:10:02;;;;;;;4.10;3.47;;;;;;;23.59;100.00;101112.03;10350041;28;20052;-76
2023/06/19 11:15:05;;;;;;;6.57;3.92;;;;;;;24.10;100.00;101107.28;10358346;28;20065;-75
2023/06/19 11:20:11;;;;;;;5.25;4.40;;;;;;;24.56;100.00;101116.78;10355868;28;20495;-76
2023/06/19 11:25:13;;;;;;;6.30;4.30;;;;;;;25.26;100.00;101125.41;10347713;28;20284;-76
2023/06/19 11:30:14;;;;;;;4.28;3.47;;;;;;;25.31;100.00;101116.72;10344498;28;20034;-75
2023/06/19 11:35:16;;;;;;;7.25;4.43;;;;;;;24.99;100.00;101121.16;10343998;28;20125;-76
2023/06/19 11:40:19;;;;;;;7.40;4.45;;;;;;;24.63;100.00;101125.47;10351781;28;24812;-76
2023/06/19 11:45:22;;;;;;;7.00;4.05;;;;;;;25.23;100.00;101119.63;10335079;28;20121;-74
2023/06/19 11:50:27;;;;;;;9.57;5.43;;;;;;;25.35;100.00;101133.75;10340431;28;20030;-76
2023/06/19 11:55:28;;;;;;;5.05;4.38;;;;;;;25.64;100.00;101129.94;10361279;28;20057;-75
2023/06/19 12:00:28;;;;;;;6.50;4.80;;;;;;;26.08;100.00;101130.19;10378924;28;20088;-77
2023/06/19 12:05:29;;;;;;;6.22;5.03;;;;;;;26.40;99.19;101121.91;10347656;28;20125;-76
2023/06/19 12:10:33;;;;;;;6.80;4.95;;;;;;;26.04;99.31;101131.25;10405645;28;20064;-77
2023/06/19 12:15:34;;;;;;;7.07;4.70;;;;;;;26.00;100.00;101135.97;10340627;28;20038;-76
2023/06/19 12:20:34;;;;;;;6.85;4.80;;;;;;;26.40;99.49;101126.72;10371912;28;20046;-76
2023/06/19 12:25:35;;;;;;;5.55;4.95;;;;;;;26.90;96.86;101128.25;10338056;28;20042;-76
2023/06/19 12:30:36;;;;;;;7.07;4.55;;;;;;;27.66;95.75;101126.31;10337641;28;20038;-77
2023/06/19 12:35:40;;;;;;;7.97;4.75;;;;;;;27.25;94.34;101128.47;10321931;28;20077;-76
2023/06/19 12:40:41;;;;;;;7.00;5.28;;;;;;;27.87;92.58;101126.03;10335518;28;20038;-77
2023/06/19 12:45:42;;;;;;;7.13;5.75;;;;;;;27.21;91.58;101135.19;10357471;28;20042;-74
2023/06/19 12:50:44;;;;;;;9.95;5.13;;;;;;;26.81;92.75;101142.53;10350910;28;20034;-76
2023/06/19 12:55:44;;;;;;;7.82;5.03;;;;;;;26.47;91.06;101132.59;10341947;28;20038;-77
2023/06/19 13:00:45;;;;;;;7.95;5.35;;;;;;;26.59;89.97;101157.19;10322743;28;20037;-76
2023/06/19 13:05:46;;;;;;;6.20;4.90;;;;;;;26.38;90.18;101156.16;10337546;28;20073;-76
2023/06/19 13:10:46;;;;;;;6.55;5.15;;;;;;;26.34;89.31;101154.41;10345665;28;20042;-76
2023/06/19 13:15:47;;;;;;;6.10;4.82;;;;;;;27.70;86.80;101143.34;10337888;28;20033;-76
2023/06/19 13:20:50;;;;;;;7.20;5.13;;;;;;;27.74;85.58;101164.91;10326629;28;20053;-76
2023/06/19 13:25:51;;;;;;;7.50;4.63;;;;;;;26.48;88.92;101163.31;10360790;28;20042;-76
2023/06/19 13:30:51;;;;;;;8.52;4.97;;;;;;;26.64;89.74;101188.81;10341863;28;20037;-76
2023/06/19 13:35:52;;;;;;;8.43;4.15;;;;;;;26.43;90.02;101171.19;10357191;28;20056;-76
2023/06/19 13:40:52;;;;;;;9.13;5.05;;;;;;;27.88;87.84;101175.78;10374664;28;20054;-76
2023/06/19 13:45:53;;;;;;;7.65;5.38;;;;;;;28.66;83.24;101161.03;10372932;28;20048;-76
2023/06/19 13:50:53;;;;;;;8.82;4.63;;;;;;;28.53;83.25;101163.19;10336896;28;20038;-77
2023/06/19 13:55:54;;;;;;;7.22;4.55;;;;;;;28.29;80.51;101148.06;10333860;28;20038;-76
2023/06/19 14:00:55;;;;;;;5.85;3.88;;;;;;;28.37;80.77;101160.38;10349315;28;20340;-77
2023/06/19 14:05:55;;;;;;;6.78;4.35;;;;;;;28.76;79.48;101151.97;10333535;28;20054;-77
2023/06/19 14:10:56;;;;;;;9.75;4.53;;;;;;;29.38;78.46;101143.50;10352935;28;20449;-77
2023/06/19 14:15:56;;;;;;;6.55;4.95;;;;;;;30.01;74.92;101144.19;10335279;28;20121;-77
2023/06/19 14:20:57;;;;;;;5.57;3.83;;;;;;;29.97;76.03;101162.00;10356223;28;20046;-77
2023/06/19 14:25:57;;;;;;;7.72;4.35;;;;;;;30.46;73.71;101151.78;10356781;28;20477;-77
2023/06/19 14:30:58;;;;;;;6.55;4.22;;;;;;;29.26;73.52;101106.81;10342458;28;20038;-76
2023/06/19 14:35:59;;;;;;;7.53;4.40;;;;;;;28.40;76.44;101153.16;10355774;28;20066;-77
2023/06/19 14:41:00;;;;;;;6.45;4.90;;;;;;;28.92;73.62;101143.34;10374446;28;20091;-76
2023/06/19 14:46:03;;;;;;;6.97;4.10;;;;;;;29.04;74.01;101133.88;10396097;28;20192;-77
2023/06/19 14:51:04;;;;;;;7.43;4.40;;;;;;;28.09;76.66;101154.84;10379576;28;20037;-76
2023/06/19 14:56:04;;;;;;;10.05;4.78;;;;;;;28.84;76.88;101156.59;10363587;28;20030;-77
2023/06/19 15:01:05;;;;;;;9.13;4.75;;;;;;;29.63;72.95;101145.97;10379754;28;20045;-77
2023/06/19 15:06:05;;;;;;;7.40;4.65;;;;;;;30.53;69.70;101136.84;10371963;28;20043;-77
2023/06/19 15:11:06;;;;;;;8.50;4.55;;;;;;;31.06;68.14;101145.25;10352978;28;20038;-77
2023/06/19 15:16:07;;;;;;;6.88;4.38;;;;;;;30.30;69.12;101146.28;10354212;28;20027;-77
2023/06/19 15:21:08;;;;;;;5.15;3.90;;;;;;;30.41;68.25;101145.59;10337175;28;20050;-77
2023/06/19 15:26:08;;;;;;;4.60;3.78;;;;;;;31.33;66.76;101143.13;10354209;28;21093;-77
2023/06/19 15:31:09;;;;;;;7.68;4.95;;;;;;;31.34;62.86;101127.69;10338312;28;20038;-78
2023/06/19 15:36:09;;;;;;;6.60;4.57;;;;;;;32.03;61.16;101119.78;10352550;28;20031;-78
2023/06/19 15:41:10;;;;;;;6.47;3.85;;;;;;;31.51;60.58;101128.28;10352802;28;20042;-77
2023/06/19 15:46:11;;;;;;;5.30;3.55;;;;;;;32.43;59.20;101124.50;10352734;28;20034;-78
2023/06/19 15:51:12;;;;;;;6.97;3.95;;;;;;;31.86;58.86;101133.47;10353189;28;20568;-77
2023/06/19 15:56:12;;;;;;;4.82;4.20;;;;;;;30.34;62.13;101118.75;10353829;28;20041;-77
2023/06/19 16:01:13;;;;;;;6.53;4.18;;;;;;;30.04;64.10;101132.06;10353084;28;20034;-78
2023/06/19 16:06:13;;;;;;;6.40;4.40;;;;;;;31.57;62.62;101138.91;10352736;28;20051;-78
2023/06/19 16:11:14;;;;;;;8.30;3.85;;;;;;;32.82;58.44;101097.41;10351226;28;20488;-77
2023/06/19 16:16:14;;;;;;;7.43;4.15;;;;;;;32.78;57.78;101103.09;10336725;28;20046;-78
2023/06/19 16:21:16;;;;;;;10.05;4.45;;;;;;;29.96;62.21;101120.59;10335092;28;20054;-78
2023/06/19 16:26:17;;;;;;;5.32;4.43;;;;;;;30.49;63.24;101127.47;10326372;28;20053;-77
2023/06/19 16:31:18;;;;;;;5.28;3.92;;;;;;;30.83;61.99;101114.09;10351079;28;20507;-78
2023/06/19 16:36:19;;;;;;;7.10;4.05;;;;;;;30.97;60.70;101127.72;10334972;28;20042;-77
2023/06/19 16:41:20;;;;;;;5.20;4.10;;;;;;;31.49;61.03;101122.19;10338728;28;20065;-78
2023/06/19 16:46:20;;;;;;;4.80;3.67;;;;;;;30.00;62.40;101126.34;10358882;28;20043;-78
2023/06/19 16:51:21;;;;;;;5.35;4.28;;;;;;;29.37;63.95;101136.16;10320221;28;20034;-79
2023/06/19 16:56:21;;;;;;;4.43;3.70;;;;;;;28.57;64.39;101121.63;10304971;28;20042;-78
2023/06/19 17:01:22;;;;;;;9.13;3.75;;;;;;;27.74;63.53;101139.44;10345305;28;20708;-77
2023/06/19 17:06:23;;;;;;;6.57;3.67;;;;;;;26.68;63.47;101150.22;10329002;28;20557;-76
2023/06/19 17:11:26;;;;;;;5.63;3.53;;;;;;;26.35;66.57;101156.84;10365408;28;20049;-78
2023/06/19 17:16:27;;;;;;;5.05;3.13;;;;;;;26.03;66.69;101169.13;10371845;28;20042;-78
2023/06/19 17:21:29;;;;;;;5.65;3.42;;;;;;;25.68;67.94;101164.72;10379954;28;20038;-78
2023/06/19 17:26:30;;;;;;;6.05;3.13;;;;;;;25.16;68.68;101149.19;10377071;28;20037;-75
2023/06/19 17:31:30;;;;;;;5.15;3.42;;;;;;;25.04;69.10;101184.94;10385557;28;20049;-76
2023/06/19 17:36:31;;;;;;;5.22;3.20;;;;;;;24.90;71.10;101182.41;10358207;28;20061;-75
2023/06/19 17:41:35;;;;;;;9.60;5.90;;;;;;;24.79;71.01;101184.00;10371123;28;20049;-78
2023/06/19 17:46:37;;;;;;;5.03;3.17;;;;;;;24.53;70.42;101182.19;10375378;28;20067;-75
2023/06/19 17:51:38;;;;;;;5.50;3.42;;;;;;;24.52;71.15;101197.44;10344875;28;20030;-77
2023/06/19 17:56:38;;;;;;;8.27;4.57;;;;;;;24.42;72.47;101204.25;10354413;28;20042;-78
2023/06/19 18:01:39;;;;;;;6.40;3.72;;;;;;;24.34;73.92;101203.13;10358213;28;20202;-77
2023/06/19 18:06:40;;;;;;;5.00;3.33;;;;;;;24.10;73.25;101200.13;10371333;28;20076;-77
2023/06/19 18:11:41;;;;;;;5.82;3.58;;;;;;;24.07;75.50;101220.50;10350018;28;20049;-79
2023/06/19 18:16:44;;;;;;;4.72;3.47;;;;;;;23.97;76.76;101211.25;10374746;28;20033;-78
2023/06/19 18:21:44;;;;;;;5.53;3.70;;;;;;;23.64;78.15;101179.28;10371694;28;20378;-77
2023/06/19 18:26:45;;;;;;;6.03;3.08;;;;;;;23.76;78.97;101232.81;10374721;28;20057;-77
2023/06/19 18:31:45;;;;;;;5.03;3.30;;;;;;;23.59;79.42;101230.88;10345282;28;20671;-75
2023/06/19 18:36:46;;;;;;;7.60;3.88;;;;;;;23.43;79.01;101212.91;10388012;28;20033;-77
2023/06/19 18:41:46;;;;;;;6.28;3.17;;;;;;;23.13;79.01;101204.31;10357779;28;20054;-75
2023/06/19 18:46:47;;;;;;;5.85;3.53;;;;;;;23.10;80.06;101228.28;10389709;28;20034;-79
2023/06/19 18:51:48;;;;;;;5.53;2.97;;;;;;;22.92;81.07;101223.81;10375133;28;20034;-77
2023/06/19 18:56:49;;;;;;;6.55;3.25;;;;;;;22.74;82.29;101225.78;10372342;28;20026;-76
2023/06/19 19:01:49;;;;;;;4.05;3.50;;;;;;;22.51;83.06;101234.34;10392188;28;20034;-77
2023/06/19 19:06:50;;;;;;;6.63;3.58;;;;;;;22.32;83.25;101237.41;10383041;28;20034;-77
2023/06/19 19:11:52;;;;;;;5.95;3.10;;;;;;;22.13;85.55;101251.66;10397862;28;20408;-75
2023/06/19 19:16:53;;;;;;;6.55;3.00;;;;;;;21.81;87.74;101241.63;10383051;28;20034;-77
2023/06/19 19:21:56;;;;;;;6.00;4.10;;;;;;;21.59;90.48;101252.88;10378358;28;20459;-81
2023/06/19 19:26:57;;;;;;;7.75;3.33;;;;;;;21.00;93.30;101206.13;10396196;28;20038;-76
2023/06/19 19:31:57;;;;;;;6.45;3.78;;;;;;;20.72;97.33;101219.38;10372563;28;20037;-76
2023/06/19 19:36:58;;;;;;;5.88;3.28;;;;;;;20.84;100.00;101269.22;10381084;28;20049;-77
2023/06/19 19:41:58;;;;;;;4.80;3.38;;;;;;;20.67;100.00;101273.47;10378416;28;20120;-76
2023/06/19 19:46:59;;;;;;;4.55;3.58;;;;;;;20.47;100.00;101291.47;10348210;28;20377;-77
2023/06/19 19:51:59;;;;;;;5.40;3.53;;;;;;;20.25;100.00;101283.00;10375153;28;20081;-76
2023/06/19 19:57:00;;;;;;;5.30;3.17;;;;;;;19.98;100.00;101283.78;10377986;28;20037;-76
2023/06/19 20:02:00;;;;;;;7.65;3.75;;;;;;;19.83;100.00;101294.13;10394785;28;20046;-76
2023/06/19 20:07:01;;;;;;;6.35;4.03;;;;;;;19.63;100.00;101294.44;10379533;28;20486;-76
2023/06/19 20:12:02;;;;;;;6.32;3.92;;;;;;;19.66;100.00;101321.78;10375690;28;20070;-76
2023/06/19 20:17:02;;;;;;;8.30;4.63;;;;;;;19.64;100.00;101318.44;10370503;28;20038;-76
2023/06/19 20:22:03;;;;;;;10.02;5.00;;;;;;;19.71;100.00;101330.91;10361664;28;20038;-76
2023/06/19 20:27:04;;;;;;;8.18;5.00;;;;;;;19.67;100.00;101351.34;10360003;28;20046;-77
2023/06/19 20:32:06;;;;;;;5.68;4.22;;;;;;;19.59;100.00;101350.06;10377940;28;20036;-78
2023/06/19 20:37:07;;;;;;;10.30;4.63;;;;;;;19.48;100.00;101360.56;10372932;28;20045;-76
2023/06/19 20:42:07;;;;;;;8.93;5.10;;;;;;;19.05;100.00;101306.78;10360216;28;20048;-77
2023/06/19 20:47:08;;;;;;;9.77;6.30;;;;;;;19.30;100.00;101367.81;10349738;28;20041;-77
2023/06/19 20:52:08;;;;;;;11.95;6.32;;;;;;;19.20;100.00;101364.34;10366131;28;20037;-75
2023/06/19 20:57:09;;;;;;;11.88;5.50;;;;;;;19.09;100.00;101360.88;10361680;28;20037;-76
2023/06/19 21:02:09;;;;;;;8.27;5.53;;;;;;;19.05;100.00;101371.78;10360039;28;20042;-77
2023/06/19 21:07:10;;;;;;;8.85;6.57;;;;;;;18.81;100.00;101352.31;10334559;28;20430;-76
2023/06/19 21:12:11;;;;;;;8.77;6.85;;;;;;;18.70;100.00;101340.41;10335904;28;20045;-77
2023/06/19 21:17:12;;;;;;;12.75;6.65;;;;;;;18.76;100.00;101361.53;10373264;28;20067;-75
2023/06/19 21:22:12;;;;;;;11.82;7.20;;;;;;;18.72;100.00;101365.22;10346907;28;20041;-75
2023/06/19 21:27:13;;;;;;;12.68;7.40;;;;;;;18.70;100.00;101362.72;10359652;28;20046;-77
2023/06/19 21:32:13;;;;;;;12.95;6.97;;;;;;;18.63;100.00;101365.03;10333685;28;20376;-77
2023/06/19 21:37:14;;;;;;;9.68;6.70;;;;;;;18.45;100.00;101358.25;10333010;28;20038;-76
2023/06/19 21:42:15;;;;;;;9.27;6.88;;;;;;;18.38;100.00;101351.41;10292716;28;20421;-75
2023/06/19 21:47:16;;;;;;;11.20;6.32;;;;;;;18.34;100.00;101377.06;10298851;28;20068;-79
2023/06/19 21:52:18;;;;;;;11.07;6.78;;;;;;;18.15;100.00;101365.84;10354192;28;20038;-77
2023/06/19 21:57:19;;;;;;;12.85;6.50;;;;;;;18.01;100.00;101362.06;10334395;28;20038;-77
2023/06/19 22:02:20;;;;;;;9.52;7.10;;;;;;;17.92;100.00;101364.66;10368328;28;20064;-76
2023/06/19 22:07:20;;;;;;;11.27;6.85;;;;;;;17.69;100.00;101346.72;10331924;28;20034;-77
2023/06/19 22:12:21;;;;;;;18.60;8.27;;;;;;;17.76;100.00;101368.66;10354020;28;20391;-76
2023/06/19 22:17:22;;;;;;;15.77;6.82;;;;;;;17.66;100.00;101372.34;10345201;28;20044;-78
2023/06/19 22:22:22;;;;;;;10.20;6.97;;;;;;;17.58;100.00;101380.50;10370583;28;20061;-76
2023/06/19 22:27:23;;;;;;;13.27;6.72;;;;;;;17.49;100.00;101375.53;10371117;28;20037;-77
2023/06/19 22:32:25;;;;;;;9.18;6.75;;;;;;;17.37;100.00;101363.94;10377315;28;20573;-77
2023/06/19 22:37:25;;;;;;;12.32;6.25;;;;;;;17.34;100.00;101370.06;10343701;28;20042;-78
2023/06/19 22:42:27;;;;;;;9.40;6.68;;;;;;;17.23;100.00;101348.97;10384196;28;20089;-77
2023/06/19 22:47:27;;;;;;;8.98;5.88;;;;;;;17.14;100.00;101338.47;10393420;28;20041;-79
2023/06/19 22:52:28;;;;;;;12.85;6.75;;;;;;;17.20;100.00;101364.31;10399881;28;20049;-76